This is the latest recevied weather packets stored in our database for station/object KN6ETB-1. If no packets are shown the sender has not sent any weather packets the latest 10 day(s).
| Time | Temp. | Humidity | Pressure | Rain* | Wind** | Luminosity | Snow |
|---|---|---|---|---|---|---|---|
| 1777586356 | 27.78° C | 48% | 1010.3 hPa | 0 mm | - | 606 W/m² | - |
| 1777586055 | 26.67° C | 48% | 1010.4 hPa | 0 mm | - | 604 W/m² | - |
| 1777585754 | 26.67° C | 48% | 1010.3 hPa | 0 mm | - | 603 W/m² | - |
| 1777585454 | 27.22° C | 48% | 1010.4 hPa | 0 mm | - | 573 W/m² | - |
| 1777585150 | 26.67° C | 48% | 1010.6 hPa | 0 mm | - | 557 W/m² | - |
| 1777584845 | 26.67° C | 48% | 1010.6 hPa | 0 mm | - | 572 W/m² | - |
| 1777584543 | 26.67° C | 48% | 1010.6 hPa | 0 mm | - | 484 W/m² | - |
| 1777584240 | 26.67° C | 47% | 1010.6 hPa | 0 mm | - | 419 W/m² | - |
| 1777583939 | 26.11° C | 49% | 1010.8 hPa | 0 mm | - | 364 W/m² | - |
| 1777583635 | 25.56° C | 49% | 1010.7 hPa | 0 mm | - | 379 W/m² | - |
| 1777583334 | 26.67° C | 48% | 1010.7 hPa | 0 mm | - | 564 W/m² | - |
| 1777583029 | 26.11° C | 48% | 1011.1 hPa | 0 mm | - | 306 W/m² | - |
| 1777582726 | 25.56° C | 48% | 1010.7 hPa | 0 mm | - | 556 W/m² | - |
| 1777582421 | 25.56° C | 49% | 1010.7 hPa | 0 mm | - | 632 W/m² | - |
| 1777582121 | 25.56° C | 50% | 1010.9 hPa | 0 mm | - | 631 W/m² | - |
| 1777581815 | 25.56° C | 50% | 1011 hPa | 0 mm | - | 288 W/m² | - |
| 1777581514 | 25.56° C | 51% | 1011 hPa | 0 mm | - | 626 W/m² | - |
| 1777581210 | 25.56° C | 50% | 1011 hPa | 0 mm | - | 624 W/m² | - |
| 1777580904 | 25° C | 51% | 1010.9 hPa | 0 mm | - | 629 W/m² | - |
| 1777580604 | 25.56° C | 51% | 1010.8 hPa | 0 mm | - | 646 W/m² | - |
| 1777580301 | 25.56° C | 51% | 1011 hPa | 0 mm | - | 610 W/m² | - |
| 1777579997 | 25° C | 50% | 1011.3 hPa | 0 mm | - | 606 W/m² | - |
| 1777579692 | 25° C | 52% | 1011.2 hPa | 0 mm | - | 670 W/m² | - |
| 1777579392 | 25° C | 52% | 1011.2 hPa | 0 mm | - | 723 W/m² | - |
| 1777579086 | 24.44° C | 52% | 1011.3 hPa | 0 mm | - | 713 W/m² | - |
* Rain latest hour (hover to see other rain measurements)
** Current wind speed in m/s (hover to see current wind gust speed)